sensor_id;sensor_type;location;lat;lon;timestamp;P1;durP1;ratioP1;P2;durP2;ratioP2
24859;SDS011;12936;52.006;4.350;2023-03-16T00:01:39;4.30;;;3.90;;
24859;SDS011;12936;52.006;4.350;2023-03-16T00:07:00;10.93;;;4.50;;
24859;SDS011;12936;52.006;4.350;2023-03-16T00:10:27;5.20;;;4.10;;
24859;SDS011;12936;52.006;4.350;2023-03-16T01:00:02;5.17;;;4.40;;
24859;SDS011;12936;52.006;4.350;2023-03-16T01:02:56;6.00;;;4.23;;
24859;SDS011;12936;52.006;4.350;2023-03-16T01:05:44;8.70;;;4.67;;
24859;SDS011;12936;52.006;4.350;2023-03-16T01:08:49;6.47;;;4.53;;
24859;SDS011;12936;52.006;4.350;2023-03-16T01:11:42;8.67;;;4.40;;
24859;SDS011;12936;52.006;4.350;2023-03-16T01:18:43;8.30;;;4.93;;
24859;SDS011;12936;52.006;4.350;2023-03-16T01:24:39;8.13;;;5.10;;
24859;SDS011;12936;52.006;4.350;2023-03-16T01:27:41;7.70;;;4.23;;
24859;SDS011;12936;52.006;4.350;2023-03-16T01:51:51;8.80;;;4.90;;
24859;SDS011;12936;52.006;4.350;2023-03-16T02:26:09;7.00;;;5.23;;
24859;SDS011;12936;52.006;4.350;2023-03-16T03:03:12;6.87;;;4.60;;
24859;SDS011;12936;52.006;4.350;2023-03-16T03:06:18;5.97;;;4.07;;
24859;SDS011;12936;52.006;4.350;2023-03-16T03:09:21;7.87;;;4.50;;
24859;SDS011;12936;52.006;4.350;2023-03-16T03:42:35;8.77;;;4.83;;
24859;SDS011;12936;52.006;4.350;2023-03-16T03:45:27;7.93;;;4.97;;
24859;SDS011;12936;52.006;4.350;2023-03-16T03:48:31;9.80;;;4.77;;
24859;SDS011;12936;52.006;4.350;2023-03-16T03:51:35;10.10;;;5.00;;
24859;SDS011;12936;52.006;4.350;2023-03-16T03:54:29;8.90;;;4.33;;
24859;SDS011;12936;52.006;4.350;2023-03-16T04:06:11;8.97;;;4.77;;
24859;SDS011;12936;52.006;4.350;2023-03-16T05:47:03;3.83;;;2.37;;
24859;SDS011;12936;52.006;4.350;2023-03-16T05:49:42;6.73;;;2.67;;
24859;SDS011;12936;52.006;4.350;2023-03-16T05:52:23;4.43;;;2.40;;
24859;SDS011;12936;52.006;4.350;2023-03-16T05:55:02;6.13;;;2.20;;
24859;SDS011;12936;52.006;4.350;2023-03-16T05:57:42;3.10;;;1.73;;
24859;SDS011;12936;52.006;4.350;2023-03-16T06:00:21;5.10;;;2.90;;
24859;SDS011;12936;52.006;4.350;2023-03-16T06:03:03;6.30;;;2.40;;
24859;SDS011;12936;52.006;4.350;2023-03-16T06:05:40;4.10;;;2.40;;
24859;SDS011;12936;52.006;4.350;2023-03-16T06:08:10;3.67;;;2.20;;
24859;SDS011;12936;52.006;4.350;2023-03-16T06:11:12;6.47;;;2.30;;
24859;SDS011;12936;52.006;4.350;2023-03-16T06:13:41;3.93;;;2.13;;
24859;SDS011;12936;52.006;4.350;2023-03-16T06:16:24;8.70;;;2.73;;
24859;SDS011;12936;52.006;4.350;2023-03-16T06:19:15;4.43;;;1.90;;
24859;SDS011;12936;52.006;4.350;2023-03-16T06:21:52;3.93;;;2.40;;
24859;SDS011;12936;52.006;4.350;2023-03-16T06:24:21;3.00;;;1.80;;
24859;SDS011;12936;52.006;4.350;2023-03-16T06:27:03;5.77;;;2.47;;
24859;SDS011;12936;52.006;4.350;2023-03-16T06:29:43;7.97;;;2.43;;
24859;SDS011;12936;52.006;4.350;2023-03-16T06:32:33;5.07;;;2.67;;
24859;SDS011;12936;52.006;4.350;2023-03-16T07:06:10;4.77;;;2.60;;
24859;SDS011;12936;52.006;4.350;2023-03-16T07:08:51;4.20;;;2.63;;
24859;SDS011;12936;52.006;4.350;2023-03-16T07:14:46;5.87;;;2.23;;
24859;SDS011;12936;52.006;4.350;2023-03-16T07:17:40;7.40;;;2.33;;
24859;SDS011;12936;52.006;4.350;2023-03-16T07:20:43;6.47;;;2.37;;
24859;SDS011;12936;52.006;4.350;2023-03-16T07:26:40;3.93;;;2.00;;
24859;SDS011;12936;52.006;4.350;2023-03-16T07:29:09;4.77;;;2.20;;
24859;SDS011;12936;52.006;4.350;2023-03-16T07:31:47;5.70;;;3.00;;
24859;SDS011;12936;52.006;4.350;2023-03-16T07:34:26;4.67;;;2.03;;
24859;SDS011;12936;52.006;4.350;2023-03-16T07:36:55;5.53;;;2.50;;
24859;SDS011;12936;52.006;4.350;2023-03-16T07:39:35;5.47;;;2.37;;
24859;SDS011;12936;52.006;4.350;2023-03-16T07:46:21;4.47;;;1.77;;
24859;SDS011;12936;52.006;4.350;2023-03-16T07:48:52;5.23;;;2.10;;
24859;SDS011;12936;52.006;4.350;2023-03-16T07:51:55;8.57;;;2.60;;
24859;SDS011;12936;52.006;4.350;2023-03-16T08:26:02;5.87;;;2.07;;
24859;SDS011;12936;52.006;4.350;2023-03-16T08:28:53;6.83;;;2.27;;
24859;SDS011;12936;52.006;4.350;2023-03-16T08:31:33;4.63;;;2.17;;
24859;SDS011;12936;52.006;4.350;2023-03-16T08:34:15;4.87;;;1.90;;
24859;SDS011;12936;52.006;4.350;2023-03-16T08:36:56;4.77;;;1.90;;
24859;SDS011;12936;52.006;4.350;2023-03-16T08:39:47;2.57;;;1.90;;
24859;SDS011;12936;52.006;4.350;2023-03-16T09:02:00;5.63;;;1.90;;
24859;SDS011;12936;52.006;4.350;2023-03-16T09:05:16;3.17;;;1.90;;
24859;SDS011;12936;52.006;4.350;2023-03-16T09:08:10;7.53;;;1.60;;
24859;SDS011;12936;52.006;4.350;2023-03-16T09:11:13;6.53;;;2.17;;
24859;SDS011;12936;52.006;4.350;2023-03-16T09:14:03;5.67;;;2.23;;
24859;SDS011;12936;52.006;4.350;2023-03-16T09:16:44;3.93;;;1.93;;
24859;SDS011;12936;52.006;4.350;2023-03-16T09:19:27;4.90;;;1.80;;
24859;SDS011;12936;52.006;4.350;2023-03-16T09:22:16;7.20;;;2.27;;
24859;SDS011;12936;52.006;4.350;2023-03-16T09:25:23;4.40;;;1.97;;
24859;SDS011;12936;52.006;4.350;2023-03-16T09:52:24;5.47;;;1.90;;
24859;SDS011;12936;52.006;4.350;2023-03-16T09:55:30;5.27;;;1.73;;
24859;SDS011;12936;52.006;4.350;2023-03-16T09:59:04;5.97;;;1.90;;
24859;SDS011;12936;52.006;4.350;2023-03-16T10:02:31;7.17;;;2.07;;
24859;SDS011;12936;52.006;4.350;2023-03-16T10:05:43;6.30;;;1.70;;
24859;SDS011;12936;52.006;4.350;2023-03-16T10:46:20;6.70;;;1.80;;
24859;SDS011;12936;52.006;4.350;2023-03-16T10:48:59;5.67;;;1.30;;
24859;SDS011;12936;52.006;4.350;2023-03-16T10:51:39;6.53;;;1.50;;
24859;SDS011;12936;52.006;4.350;2023-03-16T10:54:22;3.70;;;1.37;;
24859;SDS011;12936;52.006;4.350;2023-03-16T10:57:29;2.50;;;1.10;;
24859;SDS011;12936;52.006;4.350;2023-03-16T11:00:32;3.80;;;1.33;;
24859;SDS011;12936;52.006;4.350;2023-03-16T11:03:25;6.80;;;1.40;;
24859;SDS011;12936;52.006;4.350;2023-03-16T11:06:25;4.13;;;1.30;;
24859;SDS011;12936;52.006;4.350;2023-03-16T11:09:21;3.17;;;1.33;;
24859;SDS011;12936;52.006;4.350;2023-03-16T11:12:11;4.87;;;1.10;;
24859;SDS011;12936;52.006;4.350;2023-03-16T11:15:01;4.47;;;1.10;;
24859;SDS011;12936;52.006;4.350;2023-03-16T11:20:35;3.53;;;1.27;;
24859;SDS011;12936;52.006;4.350;2023-03-16T11:23:14;7.93;;;1.33;;
24859;SDS011;12936;52.006;4.350;2023-03-16T12:04:29;4.33;;;1.10;;
24859;SDS011;12936;52.006;4.350;2023-03-16T12:07:47;3.97;;;1.37;;
24859;SDS011;12936;52.006;4.350;2023-03-16T12:10:37;5.50;;;0.83;;
24859;SDS011;12936;52.006;4.350;2023-03-16T12:47:47;6.97;;;1.43;;
24859;SDS011;12936;52.006;4.350;2023-03-16T12:50:47;7.83;;;1.33;;
24859;SDS011;12936;52.006;4.350;2023-03-16T12:53:43;4.00;;;1.10;;
24859;SDS011;12936;52.006;4.350;2023-03-16T12:56:32;3.83;;;1.13;;
24859;SDS011;12936;52.006;4.350;2023-03-16T12:59:14;3.97;;;1.50;;
24859;SDS011;12936;52.006;4.350;2023-03-16T13:01:55;9.37;;;1.10;;
24859;SDS011;12936;52.006;4.350;2023-03-16T13:04:46;1.97;;;0.93;;
24859;SDS011;12936;52.006;4.350;2023-03-16T13:07:25;3.03;;;1.20;;
24859;SDS011;12936;52.006;4.350;2023-03-16T13:10:31;5.60;;;1.47;;
24859;SDS011;12936;52.006;4.350;2023-03-16T13:13:07;4.50;;;1.50;;
24859;SDS011;12936;52.006;4.350;2023-03-16T13:15:48;3.27;;;1.27;;
24859;SDS011;12936;52.006;4.350;2023-03-16T13:18:40;4.40;;;1.20;;
24859;SDS011;12936;52.006;4.350;2023-03-16T13:21:32;3.77;;;1.23;;
24859;SDS011;12936;52.006;4.350;2023-03-16T13:24:52;4.97;;;1.20;;
24859;SDS011;12936;52.006;4.350;2023-03-16T13:27:53;4.43;;;1.00;;
24859;SDS011;12936;52.006;4.350;2023-03-16T13:30:37;3.67;;;1.40;;
24859;SDS011;12936;52.006;4.350;2023-03-16T13:33:26;4.67;;;1.20;;
24859;SDS011;12936;52.006;4.350;2023-03-16T13:36:06;4.80;;;1.10;;
24859;SDS011;12936;52.006;4.350;2023-03-16T13:42:19;3.47;;;0.90;;
24859;SDS011;12936;52.006;4.350;2023-03-16T13:44:58;2.97;;;0.80;;
24859;SDS011;12936;52.006;4.350;2023-03-16T13:48:02;5.50;;;0.90;;
24859;SDS011;12936;52.006;4.350;2023-03-16T13:50:41;3.50;;;1.13;;
24859;SDS011;12936;52.006;4.350;2023-03-16T13:53:25;3.03;;;1.20;;
24859;SDS011;12936;52.006;4.350;2023-03-16T13:56:30;11.73;;;1.80;;
24859;SDS011;12936;52.006;4.350;2023-03-16T13:59:43;5.20;;;1.10;;
24859;SDS011;12936;52.006;4.350;2023-03-16T14:02:22;3.57;;;1.10;;
24859;SDS011;12936;52.006;4.350;2023-03-16T14:04:50;4.17;;;0.83;;
24859;SDS011;12936;52.006;4.350;2023-03-16T14:07:35;4.33;;;1.20;;
24859;SDS011;12936;52.006;4.350;2023-03-16T14:10:35;3.85;;;1.00;;
24859;SDS011;12936;52.006;4.350;2023-03-16T14:13:39;2.47;;;0.77;;
24859;SDS011;12936;52.006;4.350;2023-03-16T14:16:10;4.90;;;0.97;;
24859;SDS011;12936;52.006;4.350;2023-03-16T14:19:02;6.73;;;1.07;;
24859;SDS011;12936;52.006;4.350;2023-03-16T14:22:17;6.73;;;0.93;;
24859;SDS011;12936;52.006;4.350;2023-03-16T14:25:34;4.77;;;1.00;;
24859;SDS011;12936;52.006;4.350;2023-03-16T14:28:16;6.93;;;1.17;;
24859;SDS011;12936;52.006;4.350;2023-03-16T14:31:09;6.13;;;0.93;;
24859;SDS011;12936;52.006;4.350;2023-03-16T14:33:58;7.18;;;1.00;;
24859;SDS011;12936;52.006;4.350;2023-03-16T14:37:06;3.25;;;0.85;;
24859;SDS011;12936;52.006;4.350;2023-03-16T14:40:17;5.07;;;1.05;;
24859;SDS011;12936;52.006;4.350;2023-03-16T15:11:48;4.57;;;0.90;;
24859;SDS011;12936;52.006;4.350;2023-03-16T15:14:40;4.30;;;0.75;;
24859;SDS011;12936;52.006;4.350;2023-03-16T15:17:34;2.35;;;0.90;;
24859;SDS011;12936;52.006;4.350;2023-03-16T15:20:17;2.88;;;0.80;;
24859;SDS011;12936;52.006;4.350;2023-03-16T15:23:08;3.63;;;1.15;;
24859;SDS011;12936;52.006;4.350;2023-03-16T15:25:46;3.35;;;0.90;;
24859;SDS011;12936;52.006;4.350;2023-03-16T15:28:29;1.88;;;0.73;;
24859;SDS011;12936;52.006;4.350;2023-03-16T15:31:06;2.97;;;0.82;;
24859;SDS011;12936;52.006;4.350;2023-03-16T15:33:58;3.28;;;1.00;;
24859;SDS011;12936;52.006;4.350;2023-03-16T15:36:26;4.18;;;0.98;;
24859;SDS011;12936;52.006;4.350;2023-03-16T15:38:54;1.25;;;0.55;;
24859;SDS011;12936;52.006;4.350;2023-03-16T15:41:36;4.20;;;1.00;;
24859;SDS011;12936;52.006;4.350;2023-03-16T15:44:15;7.55;;;1.05;;
24859;SDS011;12936;52.006;4.350;2023-03-16T15:47:32;7.55;;;1.20;;
24859;SDS011;12936;52.006;4.350;2023-03-16T15:50:11;3.58;;;0.80;;
24859;SDS011;12936;52.006;4.350;2023-03-16T15:52:52;3.00;;;1.10;;
24859;SDS011;12936;52.006;4.350;2023-03-16T15:55:45;1.23;;;0.88;;
24859;SDS011;12936;52.006;4.350;2023-03-16T15:58:48;1.63;;;0.68;;
24859;SDS011;12936;52.006;4.350;2023-03-16T16:01:40;2.15;;;0.88;;
24859;SDS011;12936;52.006;4.350;2023-03-16T16:04:34;3.83;;;0.80;;
24859;SDS011;12936;52.006;4.350;2023-03-16T16:07:23;5.30;;;1.00;;
24859;SDS011;12936;52.006;4.350;2023-03-16T16:10:07;3.83;;;0.80;;
24859;SDS011;12936;52.006;4.350;2023-03-16T16:12:45;4.13;;;0.83;;
24859;SDS011;12936;52.006;4.350;2023-03-16T16:15:38;5.37;;;1.07;;
24859;SDS011;12936;52.006;4.350;2023-03-16T16:18:31;1.60;;;0.63;;
24859;SDS011;12936;52.006;4.350;2023-03-16T16:21:13;4.50;;;1.00;;
24859;SDS011;12936;52.006;4.350;2023-03-16T16:24:01;1.97;;;1.00;;
24859;SDS011;12936;52.006;4.350;2023-03-16T16:26:31;2.10;;;0.87;;
24859;SDS011;12936;52.006;4.350;2023-03-16T16:29:22;4.20;;;0.97;;
24859;SDS011;12936;52.006;4.350;2023-03-16T16:32:03;2.77;;;0.80;;
24859;SDS011;12936;52.006;4.350;2023-03-16T16:34:54;1.60;;;0.60;;
24859;SDS011;12936;52.006;4.350;2023-03-16T16:37:33;5.50;;;1.03;;
24859;SDS011;12936;52.006;4.350;2023-03-16T16:40:01;4.33;;;1.10;;
24859;SDS011;12936;52.006;4.350;2023-03-16T16:42:29;1.97;;;0.80;;
24859;SDS011;12936;52.006;4.350;2023-03-16T16:45:21;2.77;;;1.10;;
24859;SDS011;12936;52.006;4.350;2023-03-16T16:48:04;4.50;;;1.20;;
24859;SDS011;12936;52.006;4.350;2023-03-16T16:50:55;3.27;;;1.30;;
24859;SDS011;12936;52.006;4.350;2023-03-16T16:53:35;3.13;;;1.23;;
24859;SDS011;12936;52.006;4.350;2023-03-16T16:56:24;2.93;;;1.30;;
24859;SDS011;12936;52.006;4.350;2023-03-16T16:59:16;5.13;;;1.10;;
24859;SDS011;12936;52.006;4.350;2023-03-16T17:02:20;2.23;;;1.00;;
24859;SDS011;12936;52.006;4.350;2023-03-16T17:05:24;3.83;;;0.90;;
24859;SDS011;12936;52.006;4.350;2023-03-16T17:08:30;3.90;;;1.47;;
24859;SDS011;12936;52.006;4.350;2023-03-16T17:11:10;2.93;;;1.10;;
24859;SDS011;12936;52.006;4.350;2023-03-16T17:14:00;2.23;;;1.17;;
24859;SDS011;12936;52.006;4.350;2023-03-16T17:17:08;4.63;;;1.10;;
24859;SDS011;12936;52.006;4.350;2023-03-16T17:19:59;4.83;;;1.40;;
24859;SDS011;12936;52.006;4.350;2023-03-16T17:23:17;3.63;;;1.63;;
24859;SDS011;12936;52.006;4.350;2023-03-16T17:26:44;3.87;;;1.10;;
24859;SDS011;12936;52.006;4.350;2023-03-16T17:29:24;2.47;;;1.13;;
24859;SDS011;12936;52.006;4.350;2023-03-16T17:32:09;2.70;;;1.30;;
24859;SDS011;12936;52.006;4.350;2023-03-16T17:35:11;2.70;;;1.33;;
24859;SDS011;12936;52.006;4.350;2023-03-16T17:38:01;8.67;;;2.20;;
24859;SDS011;12936;52.006;4.350;2023-03-16T17:40:29;6.00;;;1.97;;
24859;SDS011;12936;52.006;4.350;2023-03-16T17:46:41;5.77;;;1.70;;
24859;SDS011;12936;52.006;4.350;2023-03-16T17:49:30;6.87;;;1.60;;
24859;SDS011;12936;52.006;4.350;2023-03-16T17:51:59;3.53;;;1.43;;
24859;SDS011;12936;52.006;4.350;2023-03-16T17:54:54;5.93;;;1.50;;
24859;SDS011;12936;52.006;4.350;2023-03-16T17:57:58;4.20;;;1.57;;
24859;SDS011;12936;52.006;4.350;2023-03-16T18:00:53;4.33;;;1.57;;
24859;SDS011;12936;52.006;4.350;2023-03-16T18:07:10;5.43;;;1.43;;
24859;SDS011;12936;52.006;4.350;2023-03-16T18:09:50;3.93;;;1.37;;
24859;SDS011;12936;52.006;4.350;2023-03-16T18:12:29;4.40;;;1.40;;
24859;SDS011;12936;52.006;4.350;2023-03-16T18:15:13;3.33;;;1.43;;
24859;SDS011;12936;52.006;4.350;2023-03-16T18:18:15;8.27;;;1.60;;
24859;SDS011;12936;52.006;4.350;2023-03-16T18:21:23;4.33;;;1.33;;
24859;SDS011;12936;52.006;4.350;2023-03-16T18:24:12;2.97;;;1.43;;
24859;SDS011;12936;52.006;4.350;2023-03-16T18:26:51;5.30;;;1.87;;
24859;SDS011;12936;52.006;4.350;2023-03-16T18:29:20;2.77;;;1.73;;
24859;SDS011;12936;52.006;4.350;2023-03-16T18:31:59;4.93;;;1.87;;
24859;SDS011;12936;52.006;4.350;2023-03-16T18:34:29;4.73;;;2.00;;
24859;SDS011;12936;52.006;4.350;2023-03-16T18:37:33;4.00;;;2.17;;
24859;SDS011;12936;52.006;4.350;2023-03-16T18:40:13;9.43;;;2.67;;
24859;SDS011;12936;52.006;4.350;2023-03-16T18:51:30;4.57;;;1.73;;
24859;SDS011;12936;52.006;4.350;2023-03-16T18:54:22;2.93;;;1.63;;
24859;SDS011;12936;52.006;4.350;2023-03-16T18:57:53;5.43;;;2.07;;
24859;SDS011;12936;52.006;4.350;2023-03-16T19:48:01;4.97;;;1.53;;
24859;SDS011;12936;52.006;4.350;2023-03-16T19:50:38;3.77;;;1.70;;
24859;SDS011;12936;52.006;4.350;2023-03-16T19:56:51;5.00;;;1.73;;
24859;SDS011;12936;52.006;4.350;2023-03-16T20:10:47;3.20;;;1.40;;
24859;SDS011;12936;52.006;4.350;2023-03-16T20:13:30;3.73;;;1.70;;
24859;SDS011;12936;52.006;4.350;2023-03-16T20:29:53;3.23;;;1.60;;
24859;SDS011;12936;52.006;4.350;2023-03-16T20:32:33;4.80;;;2.03;;
24859;SDS011;12936;52.006;4.350;2023-03-16T20:35:25;8.67;;;1.97;;
24859;SDS011;12936;52.006;4.350;2023-03-16T20:38:16;2.37;;;1.70;;
24859;SDS011;12936;52.006;4.350;2023-03-16T20:40:59;3.10;;;1.50;;
24859;SDS011;12936;52.006;4.350;2023-03-16T20:43:49;4.03;;;1.60;;
24859;SDS011;12936;52.006;4.350;2023-03-16T21:09:52;2.63;;;1.70;;
24859;SDS011;12936;52.006;4.350;2023-03-16T21:12:31;2.73;;;1.53;;
24859;SDS011;12936;52.006;4.350;2023-03-16T21:15:22;3.67;;;2.13;;
24859;SDS011;12936;52.006;4.350;2023-03-16T21:18:40;4.13;;;1.80;;
24859;SDS011;12936;52.006;4.350;2023-03-16T21:21:19;3.20;;;1.47;;
24859;SDS011;12936;52.006;4.350;2023-03-16T21:23:57;4.53;;;2.07;;
24859;SDS011;12936;52.006;4.350;2023-03-16T21:26:37;4.03;;;1.90;;
24859;SDS011;12936;52.006;4.350;2023-03-16T21:29:21;2.87;;;1.63;;
24859;SDS011;12936;52.006;4.350;2023-03-16T21:31:58;5.03;;;2.10;;
24859;SDS011;12936;52.006;4.350;2023-03-16T21:34:38;5.83;;;2.00;;
24859;SDS011;12936;52.006;4.350;2023-03-16T21:37:18;5.40;;;1.93;;
24859;SDS011;12936;52.006;4.350;2023-03-16T22:16:00;4.63;;;2.40;;
24859;SDS011;12936;52.006;4.350;2023-03-16T22:19:07;2.57;;;2.10;;
24859;SDS011;12936;52.006;4.350;2023-03-16T22:21:46;4.57;;;2.13;;
24859;SDS011;12936;52.006;4.350;2023-03-16T22:24:26;3.60;;;2.57;;
24859;SDS011;12936;52.006;4.350;2023-03-16T22:27:09;4.83;;;2.23;;
24859;SDS011;12936;52.006;4.350;2023-03-16T22:40:02;4.37;;;2.33;;
24859;SDS011;12936;52.006;4.350;2023-03-16T22:42:43;3.73;;;2.10;;
24859;SDS011;12936;52.006;4.350;2023-03-16T22:45:35;4.90;;;2.53;;
24859;SDS011;12936;52.006;4.350;2023-03-16T22:48:28;4.83;;;2.10;;
24859;SDS011;12936;52.006;4.350;2023-03-16T22:51:20;3.07;;;2.10;;
24859;SDS011;12936;52.006;4.350;2023-03-16T22:54:09;4.17;;;1.87;;
24859;SDS011;12936;52.006;4.350;2023-03-16T22:57:16;5.57;;;2.40;;
24859;SDS011;12936;52.006;4.350;2023-03-16T22:59:52;6.13;;;2.60;;
24859;SDS011;12936;52.006;4.350;2023-03-16T23:02:23;3.80;;;2.77;;
24859;SDS011;12936;52.006;4.350;2023-03-16T23:08:43;7.13;;;2.33;;
24859;SDS011;12936;52.006;4.350;2023-03-16T23:11:25;3.10;;;2.30;;
24859;SDS011;12936;52.006;4.350;2023-03-16T23:14:17;4.43;;;2.40;;
24859;SDS011;12936;52.006;4.350;2023-03-16T23:17:20;3.23;;;2.40;;
24859;SDS011;12936;52.006;4.350;2023-03-16T23:19:59;3.87;;;2.57;;
24859;SDS011;12936;52.006;4.350;2023-03-16T23:22:39;4.57;;;2.27;;
24859;SDS011;12936;52.006;4.350;2023-03-16T23:25:18;4.40;;;2.40;;
24859;SDS011;12936;52.006;4.350;2023-03-16T23:28:00;4.23;;;2.60;;
24859;SDS011;12936;52.006;4.350;2023-03-16T23:31:03;3.47;;;2.13;;
24859;SDS011;12936;52.006;4.350;2023-03-16T23:33:43;4.40;;;2.50;;
24859;SDS011;12936;52.006;4.350;2023-03-16T23:36:23;7.73;;;2.80;;
24859;SDS011;12936;52.006;4.350;2023-03-16T23:39:01;3.00;;;2.10;;
24859;SDS011;12936;52.006;4.350;2023-03-16T23:41:30;3.47;;;2.30;;
24859;SDS011;12936;52.006;4.350;2023-03-16T23:44:09;4.07;;;2.10;;
24859;SDS011;12936;52.006;4.350;2023-03-16T23:47:02;5.63;;;2.50;;
24859;SDS011;12936;52.006;4.350;2023-03-16T23:49:41;4.80;;;2.53;;
24859;SDS011;12936;52.006;4.350;2023-03-16T23:52:09;4.33;;;2.50;;
24859;SDS011;12936;52.006;4.350;2023-03-16T23:54:48;4.33;;;2.50;;
24859;SDS011;12936;52.006;4.350;2023-03-16T23:57:17;6.17;;;2.50;;
24859;SDS011;12936;52.006;4.350;2023-03-16T23:59:55;3.20;;;2.57;;
